Secretary, Maryland
Current Conditions -  °F | °C
As of 10:14 AM on Friday 31 Oct 2014 (Local Time) from KCGE Reporting Station
Clear Clear  
Wind Chill: 52°   Ceiling: Unl
Heat Index: 52°   Visibility: 10mi
Dew Point: 36°   Wind: 6mph
Humidity: 54%   Direction: 50°NE
Pressure: 29.97"   Gusts: NA
Location:  38.61°N, 75.95°W
Report Text: KCGE 311414Z AUTO 05005KT 10SM CLR 11/02 A2997 RMK AO1
Loading
Personal Weather Stations






























Interactive Weather Map
Tropical Storm Tracking
New forecast layout! Learn more

10-Day Weather Forecast

Advertisements
Track Severe Weather on mobile